createdAt,value
2022-09-26T00:00:46.198Z,4.13
2022-09-26T00:03:12.708Z,7.40
2022-09-26T00:05:39.429Z,4.20
2022-09-26T00:08:07.290Z,3.42
2022-09-26T00:10:34.284Z,5.25
2022-09-26T00:13:00.756Z,6.38
2022-09-26T00:15:27.281Z,7.65
2022-09-26T00:17:53.749Z,11.00
2022-09-26T00:20:20.285Z,5.85
2022-09-26T00:22:46.815Z,6.38
2022-09-26T00:25:13.259Z,4.10
2022-09-26T00:27:39.712Z,5.78
2022-09-26T00:30:06.504Z,6.25
2022-09-26T00:32:33.122Z,4.85
2022-09-26T00:34:59.591Z,5.97
2022-09-26T00:37:26.479Z,6.57
2022-09-26T00:39:52.935Z,4.90
2022-09-26T00:42:22.713Z,5.40
2022-09-26T00:44:53.221Z,6.30
2022-09-26T00:47:46.115Z,4.82
2022-09-26T00:50:24.542Z,5.18
2022-09-26T00:53:01.416Z,5.55
2022-09-26T00:55:31.868Z,6.18
2022-09-26T00:58:09.925Z,5.80
2022-09-26T01:00:42.120Z,6.22
2022-09-26T01:03:08.975Z,4.88
2022-09-26T01:05:36.793Z,7.53
2022-09-26T01:08:04.816Z,5.57
2022-09-26T01:10:32.782Z,5.00
2022-09-26T01:13:01.775Z,4.90
2022-09-26T01:15:28.522Z,3.88
2022-09-26T01:17:55.791Z,4.32
2022-09-26T01:20:29.337Z,7.22
2022-09-26T01:23:41.068Z,5.72
2022-09-26T01:29:39.840Z,5.30
2022-09-26T01:32:34.547Z,3.97
2022-09-26T01:35:08.559Z,8.88
2022-09-26T01:37:44.385Z,7.72
2022-09-26T01:40:26.098Z,4.82
2022-09-26T01:45:54.487Z,10.48
2022-09-26T01:48:42.722Z,7.65
2022-09-26T01:51:16.651Z,5.70
2022-09-26T01:53:53.151Z,5.15
2022-09-26T01:56:24.969Z,6.20
2022-09-26T01:58:57.483Z,4.75
2022-09-26T02:01:29.258Z,5.82
2022-09-26T02:04:02.444Z,6.57
2022-09-26T02:06:44.596Z,6.80
2022-09-26T02:09:29.446Z,6.60
2022-09-26T02:12:01.255Z,12.60
2022-09-26T02:14:34.711Z,8.02
2022-09-26T02:17:09.789Z,6.07
2022-09-26T02:19:38.930Z,4.30
2022-09-26T02:22:05.473Z,5.80
2022-09-26T02:24:31.983Z,7.68
2022-09-26T02:26:58.583Z,5.22
2022-09-26T02:29:25.468Z,5.65
2022-09-26T02:32:07.515Z,7.65
2022-09-26T02:34:34.113Z,4.53
2022-09-26T02:37:01.448Z,5.95
2022-09-26T02:39:32.972Z,5.32
2022-09-26T02:42:23.703Z,6.95
2022-09-26T02:45:29.246Z,6.45
2022-09-26T02:48:23.926Z,8.13
2022-09-26T02:53:32.652Z,8.13
2022-09-26T02:56:13.797Z,10.88
2022-09-26T02:58:55.105Z,8.95
2022-09-26T03:01:33.147Z,7.53
2022-09-26T03:04:08.196Z,7.50
2022-09-26T03:06:39.552Z,7.80
2022-09-26T03:09:07.897Z,7.38
2022-09-26T03:11:35.861Z,9.00
2022-09-26T03:14:03.970Z,7.95
2022-09-26T03:16:36.341Z,7.75
2022-09-26T03:19:14.466Z,8.52
2022-09-26T03:21:41.449Z,7.80
2022-09-26T03:24:08.040Z,7.57
2022-09-26T03:26:35.498Z,9.30
2022-09-26T03:29:02.677Z,8.55
2022-09-26T03:31:31.841Z,5.97
2022-09-26T03:34:05.010Z,9.20
2022-09-26T03:36:31.576Z,7.97
2022-09-26T03:38:58.952Z,12.57
2022-09-26T03:41:49.268Z,7.07
2022-09-26T03:44:21.954Z,9.27
2022-09-26T03:47:12.362Z,7.72
2022-09-26T03:49:43.855Z,7.13
2022-09-26T03:52:12.090Z,6.60
2022-09-26T03:54:39.275Z,8.98
2022-09-26T03:57:05.859Z,7.75
2022-09-26T03:59:36.455Z,6.07
2022-09-26T04:02:03.127Z,6.88
2022-09-26T04:04:31.217Z,5.90
2022-09-26T04:06:59.455Z,5.88
2022-09-26T04:09:26.601Z,7.28
2022-09-26T04:11:54.150Z,5.65
2022-09-26T04:14:21.483Z,7.15
2022-09-26T04:16:53.722Z,8.88
2022-09-26T04:19:27.082Z,6.47
2022-09-26T04:21:53.635Z,10.93
2022-09-26T04:24:20.938Z,8.05
2022-09-26T04:26:48.343Z,7.93
2022-09-26T04:29:15.399Z,5.55
2022-09-26T04:32:01.567Z,6.38
2022-09-26T04:34:45.030Z,6.75
2022-09-26T04:37:11.547Z,11.13
2022-09-26T04:39:37.966Z,8.88
2022-09-26T04:42:04.504Z,7.10
2022-09-26T04:44:30.961Z,9.35
2022-09-26T04:46:58.003Z,8.13
2022-09-26T04:49:35.491Z,5.32
2022-09-26T04:52:02.008Z,6.68
2022-09-26T04:54:28.523Z,7.20
2022-09-26T04:56:55.006Z,8.95
2022-09-26T04:59:22.144Z,7.13
2022-09-26T05:01:59.713Z,6.88
2022-09-26T05:04:35.285Z,5.30
2022-09-26T05:07:01.850Z,5.07
2022-09-26T05:09:35.554Z,6.82
2022-09-26T05:12:06.037Z,4.75
2022-09-26T05:14:33.283Z,6.60
2022-09-26T05:16:59.769Z,6.72
2022-09-26T05:19:26.258Z,3.90
2022-09-26T05:22:12.931Z,5.43
2022-09-26T05:24:39.421Z,6.90
2022-09-26T05:27:07.348Z,7.38
2022-09-26T05:29:34.302Z,6.72
2022-09-26T05:32:04.155Z,6.70
2022-09-26T05:34:35.946Z,6.68
2022-09-26T05:37:03.373Z,5.35
2022-09-26T05:39:31.442Z,7.00
2022-09-26T05:41:59.129Z,9.98
2022-09-26T05:44:25.636Z,11.15
2022-09-26T05:46:52.596Z,12.75
2022-09-26T05:49:19.210Z,5.00
2022-09-26T05:51:45.765Z,6.80
2022-09-26T05:54:15.431Z,6.50
2022-09-26T05:56:42.342Z,6.93
2022-09-26T05:59:27.238Z,9.02
2022-09-26T06:02:15.149Z,7.82
2022-09-26T06:04:58.041Z,7.75
2022-09-26T06:07:44.751Z,5.18
2022-09-26T06:10:17.293Z,14.73
2022-09-26T06:12:53.087Z,6.22
2022-09-26T06:15:19.743Z,5.68
2022-09-26T06:17:46.258Z,5.18
2022-09-26T06:20:12.782Z,4.70
2022-09-26T06:22:40.624Z,6.13
2022-09-26T06:25:08.762Z,12.65
2022-09-26T06:27:36.144Z,7.13
2022-09-26T06:30:03.068Z,7.05
2022-09-26T06:32:29.564Z,4.80
2022-09-26T06:35:21.311Z,6.05
2022-09-26T06:38:09.426Z,5.78
2022-09-26T06:40:36.399Z,5.30
2022-09-26T06:43:03.276Z,6.40
2022-09-26T06:45:48.112Z,5.93
2022-09-26T06:48:29.285Z,5.78
2022-09-26T06:50:57.789Z,4.70
2022-09-26T06:53:24.837Z,7.30
2022-09-26T06:55:51.470Z,9.95
2022-09-26T06:58:18.648Z,6.60
2022-09-26T07:00:55.955Z,6.35
2022-09-26T07:03:45.402Z,7.82
2022-09-26T07:06:31.140Z,8.15
2022-09-26T07:09:03.010Z,7.65
2022-09-26T07:12:14.179Z,8.32
2022-09-26T07:14:40.318Z,11.35
2022-09-26T07:17:29.995Z,7.22
2022-09-26T07:20:19.930Z,9.85
2022-09-26T07:23:06.139Z,7.55
2022-09-26T07:25:35.634Z,10.27
2022-09-26T07:28:02.445Z,9.90
2022-09-26T07:30:42.138Z,10.18
2022-09-26T07:33:14.660Z,6.57
2022-09-26T07:35:50.953Z,8.20
2022-09-26T07:38:18.900Z,12.70
2022-09-26T07:40:46.919Z,10.43
2022-09-26T07:43:26.748Z,8.05
2022-09-26T07:46:00.964Z,11.48
2022-09-26T07:48:27.664Z,9.05
2022-09-26T07:51:20.158Z,12.48
2022-09-26T07:53:49.232Z,11.35
2022-09-26T07:56:34.230Z,16.00
2022-09-26T07:59:18.722Z,14.38
2022-09-26T08:01:54.963Z,16.02
2022-09-26T08:04:36.735Z,14.63
2022-09-26T08:07:03.812Z,15.85
2022-09-26T08:09:32.883Z,20.67
2022-09-26T08:12:25.824Z,17.30
2022-09-26T08:15:24.289Z,20.85
2022-09-26T08:18:01.086Z,26.58
2022-09-26T08:20:32.033Z,19.35
2022-09-26T08:22:59.933Z,21.30
2022-09-26T08:25:26.850Z,22.75
2022-09-26T08:28:21.037Z,28.02
2022-09-26T08:30:47.576Z,23.58
2022-09-26T08:33:14.316Z,31.00
2022-09-26T08:35:40.996Z,32.05
2022-09-26T08:38:26.197Z,25.83
2022-09-26T08:42:05.302Z,21.58
2022-09-26T08:44:58.054Z,27.90
2022-09-26T08:47:51.935Z,26.52
2022-09-26T08:50:47.180Z,28.65
2022-09-26T08:53:41.632Z,30.17
2022-09-26T08:56:19.659Z,25.77
2022-09-26T08:58:51.049Z,23.27
2022-09-26T09:01:26.708Z,24.85
2022-09-26T09:04:27.692Z,29.65
2022-09-26T09:07:03.881Z,25.48
2022-09-26T09:09:30.413Z,23.88
2022-09-26T09:12:08.994Z,24.35
2022-09-26T09:14:44.605Z,29.05
2022-09-26T09:17:42.630Z,25.30
2022-09-26T09:20:25.006Z,21.33
2022-09-26T09:23:26.276Z,22.58
2022-09-26T09:29:40.135Z,26.25
2022-09-26T09:32:30.583Z,27.23
2022-09-26T09:35:20.381Z,25.13
2022-09-26T09:38:01.335Z,25.30
2022-09-26T09:40:56.602Z,24.80
2022-09-26T09:43:36.707Z,20.88
2022-09-26T09:46:11.300Z,20.75
2022-09-26T09:48:38.778Z,24.10
2022-09-26T09:51:23.329Z,19.30
2022-09-26T09:53:57.881Z,21.90
2022-09-26T09:56:46.378Z,20.50
2022-09-26T09:59:24.521Z,23.58
2022-09-26T10:02:21.259Z,22.52
2022-09-26T10:05:16.857Z,21.27
2022-09-26T10:07:44.955Z,24.27
2022-09-26T10:10:45.451Z,22.13
2022-09-26T10:13:31.118Z,21.10
2022-09-26T10:16:18.006Z,24.20
2022-09-26T10:19:03.829Z,25.92
2022-09-26T10:21:35.179Z,19.45
2022-09-26T10:24:03.521Z,21.27
2022-09-26T10:26:47.352Z,26.73
2022-09-26T10:29:31.268Z,23.00
2022-09-26T10:31:58.625Z,17.15
2022-09-26T10:34:30.786Z,19.92
2022-09-26T10:37:17.787Z,20.98
2022-09-26T10:39:52.780Z,21.98
2022-09-26T10:42:22.293Z,20.80
2022-09-26T10:44:55.610Z,19.17
2022-09-26T10:47:26.190Z,24.25
2022-09-26T10:50:11.341Z,25.08
2022-09-26T10:53:14.989Z,21.73
2022-09-26T10:55:54.998Z,20.27
2022-09-26T10:58:24.956Z,21.52
2022-09-26T11:00:54.873Z,22.08
2022-09-26T11:03:45.696Z,26.50
2022-09-26T11:06:27.638Z,16.45
2022-09-26T11:09:04.436Z,22.95
2022-09-26T11:11:51.112Z,17.92
2022-09-26T11:14:28.534Z,18.25
2022-09-26T11:17:01.028Z,16.60
2022-09-26T11:19:54.636Z,18.48
2022-09-26T11:22:34.746Z,10.93
2022-09-26T11:25:20.358Z,16.83
2022-09-26T11:28:07.595Z,15.93
2022-09-26T11:30:57.939Z,16.38
2022-09-26T11:33:26.273Z,14.95
2022-09-26T11:36:20.189Z,16.13
2022-09-26T11:38:55.403Z,16.67
2022-09-26T11:41:44.864Z,16.80
2022-09-26T11:44:25.995Z,19.98
2022-09-26T11:47:29.477Z,16.42
2022-09-26T11:50:26.733Z,21.40
2022-09-26T11:53:54.688Z,21.63
2022-09-26T11:56:45.879Z,19.20
2022-09-26T11:59:48.220Z,17.95
2022-09-26T12:02:30.019Z,21.25
2022-09-26T12:05:27.082Z,20.48
2022-09-26T12:08:12.354Z,19.27
2022-09-26T12:10:47.884Z,19.17
2022-09-26T12:13:40.609Z,19.20
2022-09-26T12:16:24.713Z,25.33
2022-09-26T12:18:51.185Z,18.00
2022-09-26T12:21:35.764Z,18.42
2022-09-26T12:24:06.887Z,18.63
2022-09-26T12:26:53.961Z,17.95
2022-09-26T12:29:54.081Z,17.52
2022-09-26T12:32:40.485Z,20.02
2022-09-26T12:35:57.677Z,15.98
2022-09-26T12:38:56.893Z,15.45
2022-09-26T12:41:41.623Z,18.17
2022-09-26T12:44:27.027Z,19.23
2022-09-26T12:47:14.342Z,12.70
2022-09-26T12:50:07.580Z,13.68
2022-09-26T12:52:54.750Z,12.93
2022-09-26T12:55:48.441Z,15.15
2022-09-26T12:58:33.474Z,13.77
2022-09-26T13:01:06.090Z,13.75
2022-09-26T13:03:53.965Z,15.30
2022-09-26T13:06:29.149Z,14.30
2022-09-26T13:09:13.217Z,14.82
2022-09-26T13:11:46.891Z,11.32
2022-09-26T13:14:31.898Z,13.05
2022-09-26T13:17:05.060Z,15.70
2022-09-26T13:19:37.123Z,13.77
2022-09-26T13:22:17.978Z,8.80
2022-09-26T13:24:51.184Z,13.65
2022-09-26T13:27:24.194Z,9.23
2022-09-26T13:30:04.355Z,10.88
2022-09-26T13:32:48.726Z,10.50
2022-09-26T13:35:24.512Z,9.05
2022-09-26T13:38:39.211Z,10.13
2022-09-26T13:41:05.690Z,12.43
2022-09-26T13:44:00.106Z,8.15
2022-09-26T13:47:01.211Z,6.00
2022-09-26T13:49:49.708Z,11.30
2022-09-26T13:52:28.010Z,10.77
2022-09-26T13:55:12.781Z,7.85
2022-09-26T13:57:57.271Z,11.30
2022-09-26T14:00:40.287Z,9.70
2022-09-26T14:03:06.757Z,7.85
2022-09-26T14:05:42.348Z,7.18
2022-09-26T14:08:21.060Z,11.07
2022-09-26T14:11:11.225Z,8.63
2022-09-26T14:13:37.882Z,11.73
2022-09-26T14:16:25.647Z,8.90
2022-09-26T14:19:11.133Z,7.60
2022-09-26T14:21:58.994Z,12.52
2022-09-26T14:24:41.147Z,9.05
2022-09-26T14:27:10.558Z,11.70
2022-09-26T14:29:40.107Z,6.43
2022-09-26T14:32:09.277Z,7.85
2022-09-26T14:34:38.300Z,12.98
2022-09-26T14:37:24.382Z,7.82
2022-09-26T14:40:34.083Z,11.68
2022-09-26T14:43:14.022Z,9.82
2022-09-26T14:45:48.331Z,7.47
2022-09-26T14:48:29.990Z,6.25
2022-09-26T14:51:02.691Z,6.93
2022-09-26T14:53:36.045Z,8.18
2022-09-26T14:56:14.103Z,10.10
2022-09-26T14:58:49.973Z,8.73
2022-09-26T15:01:30.022Z,10.93
2022-09-26T15:03:59.627Z,10.30
2022-09-26T15:06:28.375Z,7.18
2022-09-26T15:08:55.775Z,9.35
2022-09-26T15:11:31.729Z,5.30
2022-09-26T15:14:01.762Z,6.50
2022-09-26T15:16:37.350Z,6.90
2022-09-26T15:19:12.658Z,8.30
2022-09-26T15:21:43.625Z,6.10
2022-09-26T15:24:32.453Z,6.57
2022-09-26T15:27:07.084Z,7.95
2022-09-26T15:29:43.420Z,7.13
2022-09-26T15:32:25.323Z,10.50
2022-09-26T15:34:52.907Z,6.32
2022-09-26T15:37:23.501Z,6.28
2022-09-26T15:39:51.214Z,7.38
2022-09-26T15:42:29.510Z,5.80
2022-09-26T15:44:58.737Z,6.88
2022-09-26T15:47:29.694Z,5.40
2022-09-26T15:50:07.951Z,4.65
2022-09-26T15:52:35.333Z,7.13
2022-09-26T15:55:04.990Z,4.05
2022-09-26T15:57:31.892Z,5.10
2022-09-26T16:00:01.708Z,4.95
2022-09-26T16:02:32.510Z,6.07
2022-09-26T16:04:59.750Z,4.05
2022-09-26T16:07:28.600Z,3.97
2022-09-26T16:09:57.189Z,4.22
2022-09-26T16:12:28.620Z,7.50
2022-09-26T16:17:36.547Z,4.85
2022-09-26T16:20:18.045Z,5.65
2022-09-26T16:25:15.211Z,4.47
2022-09-26T16:27:42.340Z,5.78
2022-09-26T16:30:20.961Z,5.28
2022-09-26T16:32:47.590Z,7.05
2022-09-26T16:35:19.319Z,4.53
2022-09-26T16:38:04.535Z,6.68
2022-09-26T16:40:33.723Z,4.65
2022-09-26T16:43:15.394Z,5.15
2022-09-26T16:45:53.101Z,3.92
2022-09-26T16:48:42.575Z,4.82
2022-09-26T16:51:20.854Z,4.22
2022-09-26T16:54:07.624Z,4.60
2022-09-26T16:56:37.993Z,4.78
2022-09-26T16:59:11.611Z,4.78
2022-09-26T17:01:38.121Z,4.63
2022-09-26T17:04:10.269Z,5.53
2022-09-26T17:06:36.721Z,4.93
2022-09-26T17:09:13.976Z,7.13
2022-09-26T17:11:40.445Z,7.53
2022-09-26T17:14:09.805Z,3.55
2022-09-26T17:16:36.361Z,3.72
2022-09-26T17:19:02.887Z,5.47
2022-09-26T17:21:29.352Z,7.32
2022-09-26T17:23:55.909Z,4.85
2022-09-26T17:26:23.636Z,5.82
2022-09-26T17:28:52.061Z,5.53
2022-09-26T17:31:19.192Z,7.85
2022-09-26T17:33:47.139Z,4.80
2022-09-26T17:36:25.752Z,4.80
2022-09-26T17:38:52.401Z,5.25
2022-09-26T17:41:18.962Z,6.75
2022-09-26T17:43:45.628Z,5.07
2022-09-26T17:46:15.349Z,4.78
2022-09-26T17:48:42.113Z,5.68
2022-09-26T17:51:10.129Z,4.68
2022-09-26T17:53:40.181Z,3.22
2022-09-26T17:56:06.772Z,6.35
2022-09-26T17:58:34.825Z,2.65
2022-09-26T18:01:01.824Z,4.60
2022-09-26T18:03:30.869Z,4.80
2022-09-26T18:05:57.532Z,4.82
2022-09-26T18:08:35.384Z,5.20
2022-09-26T18:11:12.940Z,5.32
2022-09-26T18:13:51.541Z,5.78
2022-09-26T18:16:18.626Z,5.72
2022-09-26T18:18:45.080Z,5.75
2022-09-26T18:21:15.161Z,6.45
2022-09-26T18:23:56.706Z,5.88
2022-09-26T18:26:34.206Z,4.75
2022-09-26T18:29:05.681Z,4.38
2022-09-26T18:34:00.015Z,7.53
2022-09-26T18:36:27.862Z,4.30
2022-09-26T18:38:54.292Z,8.90
2022-09-26T18:41:23.181Z,6.93
2022-09-26T18:43:50.011Z,4.50
2022-09-26T18:46:17.111Z,3.33
2022-09-26T18:48:44.806Z,5.05
2022-09-26T18:51:12.027Z,3.80
2022-09-26T18:53:38.813Z,6.65
2022-09-26T18:56:06.220Z,7.85
2022-09-26T18:58:33.826Z,5.45
2022-09-26T19:01:05.452Z,4.93
2022-09-26T19:03:37.969Z,5.32
2022-09-26T19:06:08.299Z,8.30
2022-09-26T19:08:38.036Z,10.20
2022-09-26T19:11:13.366Z,5.72
2022-09-26T19:13:40.669Z,4.18
2022-09-26T19:16:07.827Z,6.40
2022-09-26T19:18:35.332Z,7.68
2022-09-26T19:21:05.290Z,7.18
2022-09-26T19:23:35.669Z,5.35
2022-09-26T19:26:05.327Z,7.95
2022-09-26T19:28:35.891Z,6.13
2022-09-26T19:31:03.468Z,7.30
2022-09-26T19:33:29.991Z,7.35
2022-09-26T19:35:56.680Z,5.00
2022-09-26T19:38:25.543Z,5.03
2022-09-26T19:40:52.766Z,5.45
2022-09-26T19:43:21.086Z,8.70
2022-09-26T19:45:51.846Z,10.02
2022-09-26T19:48:21.479Z,6.88
2022-09-26T19:50:48.397Z,7.82
2022-09-26T19:53:21.239Z,6.88
2022-09-26T19:55:48.353Z,6.53
2022-09-26T19:58:20.477Z,8.63
2022-09-26T20:00:52.756Z,7.25
2022-09-26T20:03:19.154Z,8.60
2022-09-26T20:05:46.835Z,8.68
2022-09-26T20:08:16.733Z,5.43
2022-09-26T20:10:43.279Z,6.95
2022-09-26T20:13:09.763Z,5.32
2022-09-26T20:15:36.373Z,5.72
2022-09-26T20:18:03.111Z,5.40
2022-09-26T20:20:29.549Z,7.13
2022-09-26T20:22:56.276Z,5.38
2022-09-26T20:25:27.166Z,5.70
2022-09-26T20:27:55.073Z,7.60
2022-09-26T20:30:21.666Z,5.07
2022-09-26T20:32:48.157Z,5.18
2022-09-26T20:35:14.768Z,6.18
2022-09-26T20:37:41.921Z,4.75
2022-09-26T20:40:18.374Z,8.40
2022-09-26T20:42:48.502Z,7.40
2022-09-26T20:45:16.636Z,5.53
2022-09-26T20:47:44.691Z,4.63
2022-09-26T20:50:19.607Z,6.50
2022-09-26T20:52:46.126Z,6.85
2022-09-26T20:55:18.163Z,5.75
2022-09-26T20:57:45.244Z,3.88
2022-09-26T21:00:16.396Z,4.85
2022-09-26T21:02:44.149Z,4.85
2022-09-26T21:05:19.881Z,4.97
2022-09-26T21:07:46.645Z,4.22
2022-09-26T21:10:32.735Z,5.43
2022-09-26T21:13:00.336Z,6.30
2022-09-26T21:15:30.024Z,7.18
2022-09-26T21:17:57.313Z,4.72
2022-09-26T21:20:24.786Z,7.43
2022-09-26T21:22:59.363Z,5.22
2022-09-26T21:25:29.477Z,5.30
2022-09-26T21:27:59.780Z,3.65
2022-09-26T21:30:26.255Z,5.93
2022-09-26T21:32:56.491Z,8.32
2022-09-26T21:35:26.784Z,11.07
2022-09-26T21:37:55.574Z,4.18
2022-09-26T21:40:25.733Z,3.78
2022-09-26T21:42:56.859Z,7.30
2022-09-26T21:45:27.306Z,4.88
2022-09-26T21:47:55.633Z,7.07
2022-09-26T21:50:24.347Z,4.43
2022-09-26T21:52:55.307Z,5.85
2022-09-26T21:55:36.648Z,5.85
2022-09-26T21:58:09.009Z,4.88
2022-09-26T22:00:35.499Z,6.65
2022-09-26T22:03:01.922Z,6.68
2022-09-26T22:05:28.365Z,6.82
2022-09-26T22:07:56.125Z,5.65
2022-09-26T22:10:22.617Z,8.80
2022-09-26T22:12:51.053Z,6.50
2022-09-26T22:15:18.027Z,8.50
2022-09-26T22:17:44.460Z,4.82
2022-09-26T22:20:11.089Z,8.23
2022-09-26T22:22:37.944Z,5.10
2022-09-26T22:25:07.987Z,4.35
2022-09-26T22:27:34.975Z,4.90
2022-09-26T22:30:01.733Z,3.90
2022-09-26T22:32:28.202Z,6.32
2022-09-26T22:34:54.656Z,6.38
2022-09-26T22:37:21.071Z,6.43
2022-09-26T22:39:47.501Z,4.10
2022-09-26T22:42:14.218Z,5.32
2022-09-26T22:44:40.671Z,6.78
2022-09-26T22:47:07.185Z,5.38
2022-09-26T22:49:33.631Z,6.25
2022-09-26T22:52:00.304Z,7.07
2022-09-26T22:54:26.735Z,4.40
2022-09-26T22:56:53.217Z,8.30
2022-09-26T22:59:19.633Z,4.35
2022-09-26T23:01:46.142Z,6.90
2022-09-26T23:04:12.564Z,6.20
2022-09-26T23:06:38.993Z,8.48
2022-09-26T23:09:05.524Z,8.90
2022-09-26T23:11:31.977Z,5.93
2022-09-26T23:13:58.395Z,7.15
2022-09-26T23:16:25.704Z,7.10
2022-09-26T23:18:52.445Z,5.70
2022-09-26T23:21:21.574Z,5.70
2022-09-26T23:23:50.638Z,4.75
2022-09-26T23:26:18.649Z,7.47
2022-09-26T23:28:45.068Z,8.32
2022-09-26T23:31:11.679Z,10.57
2022-09-26T23:33:38.878Z,5.30
2022-09-26T23:36:06.202Z,5.45
2022-09-26T23:38:33.375Z,8.73
2022-09-26T23:40:59.954Z,4.72
2022-09-26T23:43:26.440Z,8.77
2022-09-26T23:45:53.219Z,6.43
2022-09-26T23:48:20.622Z,7.80
2022-09-26T23:50:47.135Z,6.80
2022-09-26T23:53:15.057Z,4.07
2022-09-26T23:55:42.060Z,9.70
2022-09-26T23:58:09.056Z,6.88
